createdAt,value
2024-01-20T00:00:14.436Z,10.30
2024-01-20T00:02:41.725Z,13.13
2024-01-20T00:05:09.324Z,10.47
2024-01-20T00:07:36.403Z,13.10
2024-01-20T00:10:03.870Z,10.37
2024-01-20T00:12:35.067Z,13.37
2024-01-20T00:15:02.523Z,9.83
2024-01-20T00:17:30.311Z,14.50
2024-01-20T00:19:57.575Z,19.97
2024-01-20T00:22:24.559Z,12.17
2024-01-20T00:24:52.550Z,13.77
2024-01-20T00:27:20.565Z,12.37
2024-01-20T00:29:47.496Z,12.67
2024-01-20T00:32:16.309Z,12.80
2024-01-20T00:34:55.371Z,12.47
2024-01-20T00:37:30.491Z,12.50
2024-01-20T00:39:57.488Z,17.13
2024-01-20T00:42:24.337Z,12.23
2024-01-20T00:44:51.239Z,12.67
2024-01-20T00:47:18.172Z,11.33
2024-01-20T00:49:45.136Z,15.30
2024-01-20T00:52:12.266Z,14.00
2024-01-20T00:59:00.142Z,9.90
2024-01-20T01:01:27.057Z,10.67
2024-01-20T01:03:53.879Z,10.07
2024-01-20T01:06:20.691Z,13.33
2024-01-20T01:08:47.414Z,11.13
2024-01-20T01:11:14.344Z,15.47
2024-01-20T01:13:41.312Z,11.27
2024-01-20T01:16:08.185Z,10.00
2024-01-20T01:18:35.027Z,19.53
2024-01-20T01:21:01.889Z,18.73
2024-01-20T01:23:28.740Z,15.97
2024-01-20T01:25:55.617Z,18.27
2024-01-20T01:28:22.496Z,16.60
2024-01-20T01:30:50.023Z,13.30
2024-01-20T01:33:16.947Z,18.57
2024-01-20T01:35:43.862Z,19.33
2024-01-20T01:38:11.253Z,18.07
2024-01-20T01:40:38.160Z,15.97
2024-01-20T01:43:05.001Z,14.67
2024-01-20T01:45:31.848Z,15.27
2024-01-20T01:47:58.936Z,22.70
2024-01-20T01:50:26.366Z,16.17
2024-01-20T01:52:55.854Z,15.73
2024-01-20T01:55:25.156Z,18.73
2024-01-20T01:57:56.224Z,19.63
2024-01-20T02:00:23.337Z,18.50
2024-01-20T02:02:50.189Z,18.73
2024-01-20T02:05:17.099Z,19.60
2024-01-20T02:07:43.989Z,21.67
2024-01-20T02:10:12.859Z,23.37
2024-01-20T02:12:40.896Z,16.73
2024-01-20T02:15:09.286Z,20.47
2024-01-20T02:17:37.223Z,17.97
2024-01-20T02:20:04.348Z,22.57
2024-01-20T02:22:31.161Z,20.00
2024-01-20T02:24:58.014Z,17.57
2024-01-20T02:27:24.911Z,19.33
2024-01-20T02:29:51.894Z,18.10
2024-01-20T02:32:18.791Z,20.77
2024-01-20T02:34:45.645Z,16.77
2024-01-20T02:37:12.646Z,16.60
2024-01-20T02:39:39.401Z,16.17
2024-01-20T02:42:09.671Z,15.80
2024-01-20T02:44:36.665Z,18.83
2024-01-20T02:47:03.976Z,22.87
2024-01-20T02:49:31.462Z,17.20
2024-01-20T02:51:58.526Z,15.10
2024-01-20T02:54:25.365Z,14.60
2024-01-20T02:56:52.234Z,17.30
2024-01-20T02:59:19.206Z,16.30
2024-01-20T03:01:46.011Z,14.07
2024-01-20T03:04:14.921Z,17.20
2024-01-20T03:06:41.841Z,14.00
2024-01-20T03:09:09.066Z,16.83
2024-01-20T03:11:39.284Z,14.27
2024-01-20T03:14:06.056Z,12.40
2024-01-20T03:16:32.822Z,13.70
2024-01-20T03:19:00.219Z,14.20
2024-01-20T03:21:27.116Z,12.20
2024-01-20T03:23:57.003Z,15.13
2024-01-20T03:26:23.991Z,14.23
2024-01-20T03:28:50.789Z,13.43
2024-01-20T03:31:18.328Z,15.03
2024-01-20T03:33:45.432Z,17.57
2024-01-20T03:36:12.848Z,12.70
2024-01-20T03:38:39.663Z,13.97
2024-01-20T03:41:07.145Z,12.50
2024-01-20T03:43:33.980Z,10.40
2024-01-20T03:46:00.918Z,10.73
2024-01-20T03:48:27.843Z,12.27
2024-01-20T03:50:54.707Z,9.77
2024-01-20T03:53:21.527Z,9.67
2024-01-20T03:55:48.326Z,10.03
2024-01-20T03:58:15.144Z,10.60
2024-01-20T04:00:44.317Z,13.30
2024-01-20T04:03:11.692Z,11.20
2024-01-20T04:05:40.618Z,15.47
2024-01-20T04:08:07.662Z,14.37
2024-01-20T04:10:34.465Z,12.90
2024-01-20T04:13:01.261Z,15.83
2024-01-20T04:15:28.302Z,13.50
2024-01-20T04:17:55.654Z,15.37
2024-01-20T04:20:22.649Z,15.00
2024-01-20T04:22:49.466Z,15.07
2024-01-20T04:25:17.058Z,12.97
2024-01-20T04:27:43.898Z,12.53
2024-01-20T04:30:12.267Z,13.90
2024-01-20T04:32:39.302Z,12.53
2024-01-20T04:35:07.412Z,12.57
2024-01-20T04:37:34.391Z,11.03
2024-01-20T04:40:01.891Z,12.00
2024-01-20T04:42:28.818Z,9.23
2024-01-20T04:44:55.669Z,16.33
2024-01-20T04:47:23.067Z,15.83
2024-01-20T04:49:52.522Z,13.33
2024-01-20T04:52:20.956Z,13.47
2024-01-20T04:54:47.738Z,16.40
2024-01-20T04:57:14.965Z,12.93
2024-01-20T04:59:41.783Z,13.83
2024-01-20T05:02:08.614Z,12.17
2024-01-20T05:04:35.436Z,12.37
2024-01-20T05:07:02.378Z,12.47
2024-01-20T05:09:29.254Z,12.07
2024-01-20T05:11:56.198Z,14.70
2024-01-20T05:14:23.038Z,14.80
2024-01-20T05:16:49.866Z,16.17
2024-01-20T05:19:16.870Z,19.23
2024-01-20T05:21:45.207Z,18.13
2024-01-20T05:24:12.055Z,19.73
2024-01-20T05:26:40.139Z,20.23
2024-01-20T05:29:07.005Z,18.40
2024-01-20T05:31:33.829Z,19.20
2024-01-20T05:34:01.245Z,23.13
2024-01-20T05:36:28.381Z,19.23
2024-01-20T05:38:55.298Z,19.40
2024-01-20T05:41:22.159Z,18.33
2024-01-20T05:43:48.914Z,21.20
2024-01-20T05:46:15.705Z,17.03
2024-01-20T05:48:42.599Z,20.37
2024-01-20T05:51:09.586Z,18.23
2024-01-20T05:53:36.393Z,20.07
2024-01-20T05:56:03.411Z,24.97
2024-01-20T05:58:30.222Z,19.00
2024-01-20T06:00:57.077Z,17.73
2024-01-20T06:03:27.136Z,19.37
2024-01-20T06:05:54.306Z,19.70
2024-01-20T06:08:21.201Z,19.17
2024-01-20T06:10:48.136Z,20.40
2024-01-20T06:13:14.943Z,24.13
2024-01-20T06:15:41.754Z,21.17
2024-01-20T06:18:09.042Z,23.63
2024-01-20T06:20:35.869Z,21.50
2024-01-20T06:23:02.745Z,24.00
2024-01-20T06:25:29.550Z,24.20
2024-01-20T06:27:56.646Z,27.63
2024-01-20T06:30:23.543Z,26.50
2024-01-20T06:32:50.405Z,24.13
2024-01-20T06:35:17.203Z,21.50
2024-01-20T06:37:43.992Z,24.07
2024-01-20T06:40:11.229Z,25.33
2024-01-20T06:42:38.113Z,22.13
2024-01-20T06:45:05.301Z,25.40
2024-01-20T06:47:32.251Z,27.07
2024-01-20T06:49:59.352Z,22.00
2024-01-20T06:52:26.318Z,37.63
2024-01-20T06:54:53.155Z,20.80
2024-01-20T06:57:20.259Z,19.97
2024-01-20T06:59:47.094Z,18.73
2024-01-20T07:02:13.907Z,18.30
2024-01-20T07:04:40.800Z,20.60
2024-01-20T07:07:07.664Z,19.63
2024-01-20T07:09:40.939Z,19.70
2024-01-20T07:12:08.760Z,22.40
2024-01-20T07:14:36.624Z,22.90
2024-01-20T07:17:06.365Z,22.47
2024-01-20T07:19:33.318Z,21.73
2024-01-20T07:22:00.413Z,20.57
2024-01-20T07:24:29.099Z,20.73
2024-01-20T07:26:56.663Z,21.20
2024-01-20T07:29:24.879Z,23.17
2024-01-20T07:31:51.749Z,23.13
2024-01-20T07:34:19.131Z,20.20
2024-01-20T07:36:46.230Z,17.60
2024-01-20T07:39:13.106Z,24.40
2024-01-20T07:41:40.551Z,18.47
2024-01-20T07:44:07.483Z,18.83
2024-01-20T07:46:34.286Z,19.00
2024-01-20T07:49:01.228Z,18.70
2024-01-20T07:51:29.176Z,18.47
2024-01-20T07:53:56.062Z,20.10
2024-01-20T07:56:22.963Z,20.47
2024-01-20T07:58:49.873Z,30.17
2024-01-20T08:01:19.826Z,24.77
2024-01-20T08:03:46.919Z,29.80
2024-01-20T08:06:13.854Z,24.37
2024-01-20T08:08:40.786Z,28.80
2024-01-20T08:11:07.702Z,27.77
2024-01-20T08:13:34.553Z,24.93
2024-01-20T08:16:01.425Z,30.77
2024-01-20T08:18:28.489Z,34.57
2024-01-20T08:20:55.670Z,28.40
2024-01-20T08:23:22.675Z,30.03
2024-01-20T08:25:49.516Z,53.53
2024-01-20T08:28:16.781Z,27.17
2024-01-20T08:30:43.786Z,28.57
2024-01-20T08:33:10.812Z,32.23
2024-01-20T08:35:37.697Z,24.03
2024-01-20T08:38:04.799Z,50.40
2024-01-20T08:40:31.670Z,34.37
2024-01-20T08:42:58.586Z,23.97
2024-01-20T08:45:25.513Z,24.60
2024-01-20T08:47:52.390Z,29.13
2024-01-20T08:50:19.545Z,26.40
2024-01-20T08:52:46.927Z,27.73
2024-01-20T08:55:14.223Z,25.60
2024-01-20T08:57:41.143Z,25.43
2024-01-20T09:00:10.334Z,26.47
2024-01-20T09:02:37.283Z,24.90
2024-01-20T09:05:04.565Z,27.70
2024-01-20T09:07:31.483Z,28.33
2024-01-20T09:09:59.690Z,29.83
2024-01-20T09:12:26.688Z,24.87
2024-01-20T09:14:54.143Z,23.60
2024-01-20T09:17:21.143Z,24.30
2024-01-20T09:19:48.149Z,23.57
2024-01-20T09:22:15.068Z,19.37
2024-01-20T09:24:44.752Z,23.37
2024-01-20T09:27:11.828Z,21.97
2024-01-20T09:29:39.979Z,20.30
2024-01-20T09:32:08.217Z,22.13
2024-01-20T09:34:35.241Z,22.87
2024-01-20T09:37:02.109Z,20.97
2024-01-20T09:39:29.126Z,23.87
2024-01-20T09:41:57.047Z,19.17
2024-01-20T09:44:23.996Z,20.37
2024-01-20T09:46:51.075Z,18.50
2024-01-20T09:49:18.069Z,19.97
2024-01-20T09:51:53.048Z,20.47
2024-01-20T09:54:21.869Z,17.63
2024-01-20T09:56:49.067Z,19.13
2024-01-20T09:59:16.402Z,15.03
2024-01-20T10:01:46.572Z,17.83
2024-01-20T10:04:18.657Z,15.47
2024-01-20T10:06:45.915Z,15.37
2024-01-20T10:09:12.841Z,16.43
2024-01-20T10:11:39.724Z,15.37
2024-01-20T10:14:06.955Z,14.33
2024-01-20T10:16:42.784Z,14.60
2024-01-20T10:19:10.017Z,13.83
2024-01-20T10:21:41.706Z,14.43
2024-01-20T10:24:09.262Z,14.00
2024-01-20T10:26:43.220Z,15.70
2024-01-20T10:29:10.825Z,12.60
2024-01-20T10:31:37.692Z,14.50
2024-01-20T10:34:04.660Z,12.87
2024-01-20T10:36:32.137Z,15.10
2024-01-20T10:39:05.870Z,10.87
2024-01-20T10:41:39.383Z,11.43
2024-01-20T10:44:07.426Z,12.80
2024-01-20T10:46:39.637Z,12.23
2024-01-20T10:49:11.638Z,13.03
2024-01-20T10:51:38.643Z,11.27
2024-01-20T10:54:10.107Z,11.20
2024-01-20T10:56:37.846Z,13.90
2024-01-20T10:59:12.048Z,13.77
2024-01-20T11:01:42.408Z,12.33
2024-01-20T11:04:09.884Z,11.83
2024-01-20T11:06:37.488Z,12.17
2024-01-20T11:09:05.285Z,11.70
2024-01-20T11:11:36.348Z,13.87
2024-01-20T11:14:03.680Z,11.37
2024-01-20T11:16:34.399Z,10.10
2024-01-20T11:19:13.147Z,11.63
2024-01-20T11:21:40.641Z,11.70
2024-01-20T11:24:08.192Z,11.87
2024-01-20T11:26:36.759Z,14.40
2024-01-20T11:29:06.061Z,10.43
2024-01-20T11:31:33.782Z,9.13
2024-01-20T11:34:03.407Z,11.63
2024-01-20T11:36:31.278Z,10.23
2024-01-20T11:38:59.590Z,10.33
2024-01-20T11:41:27.760Z,10.73
2024-01-20T11:43:54.821Z,10.50
2024-01-20T11:46:21.793Z,7.93
2024-01-20T11:48:49.054Z,8.73
2024-01-20T11:51:16.885Z,7.63
2024-01-20T11:53:44.982Z,8.63
2024-01-20T11:56:12.070Z,7.57
2024-01-20T11:58:38.993Z,7.87
2024-01-20T12:01:06.371Z,9.60
2024-01-20T12:03:33.649Z,6.70
2024-01-20T12:06:06.480Z,7.27
2024-01-20T12:08:34.609Z,7.60
2024-01-20T12:11:01.564Z,8.40
2024-01-20T12:13:33.831Z,8.20
2024-01-20T12:16:01.151Z,7.13
2024-01-20T12:18:28.378Z,6.70
2024-01-20T12:20:55.367Z,7.97
2024-01-20T12:23:22.240Z,9.43
2024-01-20T12:25:55.377Z,8.67
2024-01-20T12:28:22.502Z,9.73
2024-01-20T12:30:50.100Z,7.50
2024-01-20T12:33:17.260Z,7.50
2024-01-20T12:35:44.286Z,10.93
2024-01-20T12:38:11.136Z,10.20
2024-01-20T12:40:38.032Z,7.83
2024-01-20T12:43:04.988Z,8.33
2024-01-20T12:45:31.836Z,7.57
2024-01-20T12:47:58.957Z,8.27
2024-01-20T12:50:26.127Z,10.70
2024-01-20T12:52:53.043Z,8.37
2024-01-20T12:55:20.036Z,7.87
2024-01-20T12:57:46.976Z,11.27
2024-01-20T13:00:14.388Z,9.47
2024-01-20T13:02:41.245Z,10.83
2024-01-20T13:05:08.393Z,10.33
2024-01-20T13:07:35.268Z,9.10
2024-01-20T13:10:02.215Z,11.80
2024-01-20T13:12:29.773Z,14.07
2024-01-20T13:14:56.688Z,11.07
2024-01-20T13:17:23.579Z,9.00
2024-01-20T13:19:50.434Z,11.17
2024-01-20T13:22:17.618Z,13.50
2024-01-20T13:24:44.566Z,10.37
2024-01-20T13:27:11.426Z,12.43
2024-01-20T13:29:38.245Z,8.87
2024-01-20T13:32:05.311Z,9.03
2024-01-20T13:34:34.709Z,10.40
2024-01-20T13:37:01.735Z,10.70
2024-01-20T13:39:28.538Z,11.83
2024-01-20T13:41:55.401Z,8.47
2024-01-20T13:44:22.321Z,9.03
2024-01-20T13:46:49.405Z,20.90
2024-01-20T13:49:16.510Z,10.07
2024-01-20T13:51:43.705Z,12.17
2024-01-20T13:54:10.724Z,12.07
2024-01-20T13:56:37.578Z,11.87
2024-01-20T13:59:04.385Z,11.80
2024-01-20T14:01:31.266Z,9.10
2024-01-20T14:03:58.761Z,12.63
2024-01-20T14:06:25.948Z,11.20
2024-01-20T14:08:53.393Z,12.53
2024-01-20T14:11:20.377Z,10.10
2024-01-20T14:13:47.247Z,12.73
2024-01-20T14:16:14.142Z,12.30
2024-01-20T14:18:41.112Z,10.37
2024-01-20T14:21:08.035Z,19.30
2024-01-20T14:23:34.900Z,18.27
2024-01-20T14:26:01.769Z,14.70
2024-01-20T14:28:28.856Z,10.60
2024-01-20T14:30:55.734Z,10.67
2024-01-20T14:33:22.827Z,13.17
2024-01-20T14:35:49.823Z,13.07
2024-01-20T14:38:16.699Z,9.63
2024-01-20T14:40:43.537Z,9.83
2024-01-20T14:43:10.349Z,9.67
2024-01-20T14:45:37.453Z,9.77
2024-01-20T14:48:05.625Z,8.40
2024-01-20T14:50:32.594Z,8.23
2024-01-20T14:52:59.462Z,7.57
2024-01-20T14:55:28.699Z,8.87
2024-01-20T14:57:57.077Z,12.43
2024-01-20T15:00:24.241Z,7.00
2024-01-20T15:02:51.666Z,7.47
2024-01-20T15:05:18.832Z,7.93
2024-01-20T15:07:45.727Z,10.30
2024-01-20T15:10:13.034Z,8.17
2024-01-20T15:12:40.103Z,7.50
2024-01-20T15:15:07.366Z,8.53
2024-01-20T15:17:34.403Z,6.97
2024-01-20T15:20:01.327Z,6.13
2024-01-20T15:22:28.173Z,7.40
2024-01-20T15:24:55.071Z,8.73
2024-01-20T15:27:22.117Z,7.20
2024-01-20T15:29:49.383Z,7.80
2024-01-20T15:32:16.337Z,8.00
2024-01-20T15:34:43.268Z,7.20
2024-01-20T15:37:10.242Z,8.27
2024-01-20T15:39:37.096Z,8.60
2024-01-20T15:42:04.294Z,9.63
2024-01-20T15:44:31.127Z,10.10
2024-01-20T15:46:57.913Z,7.20
2024-01-20T15:49:24.856Z,8.00
2024-01-20T15:51:51.810Z,8.33
2024-01-20T15:54:18.929Z,9.30
2024-01-20T15:56:46.005Z,8.47
2024-01-20T15:59:12.927Z,6.97
2024-01-20T16:01:39.947Z,8.70
2024-01-20T16:04:07.049Z,8.37
2024-01-20T16:06:34.318Z,10.83
2024-01-20T16:09:01.225Z,7.70
2024-01-20T16:11:28.994Z,15.90
2024-01-20T16:13:55.901Z,13.10
2024-01-20T16:16:23.338Z,13.00
2024-01-20T16:18:50.331Z,9.60
2024-01-20T16:21:25.377Z,10.50
2024-01-20T16:23:53.311Z,9.87
2024-01-20T16:26:22.089Z,10.90
2024-01-20T16:28:50.105Z,10.50
2024-01-20T16:31:17.647Z,9.40
2024-01-20T16:33:45.846Z,10.87
2024-01-20T16:36:15.451Z,11.60
2024-01-20T16:38:42.557Z,10.13
2024-01-20T16:41:11.434Z,8.57
2024-01-20T16:43:39.338Z,12.10
2024-01-20T16:46:06.982Z,10.37
2024-01-20T16:48:34.226Z,9.13
2024-01-20T16:51:01.280Z,8.60
2024-01-20T16:53:28.344Z,9.67
2024-01-20T16:55:55.275Z,9.77
2024-01-20T16:58:22.213Z,14.20
2024-01-20T17:00:49.294Z,12.03
2024-01-20T17:03:16.203Z,12.67
2024-01-20T17:05:43.175Z,11.93
2024-01-20T17:08:10.065Z,10.43
2024-01-20T17:10:36.930Z,8.87
2024-01-20T17:13:03.899Z,10.23
2024-01-20T17:15:30.913Z,10.90
2024-01-20T17:17:57.788Z,11.67
2024-01-20T17:20:24.847Z,10.63
2024-01-20T17:22:51.730Z,11.23
2024-01-20T17:25:18.598Z,12.03
2024-01-20T17:27:45.500Z,10.83
2024-01-20T17:30:13.136Z,14.40
2024-01-20T17:32:40.756Z,16.60
2024-01-20T17:35:09.393Z,14.67
2024-01-20T17:37:36.810Z,13.40
2024-01-20T17:40:07.037Z,18.40
2024-01-20T17:42:34.003Z,14.50
2024-01-20T17:45:00.996Z,11.97
2024-01-20T17:47:29.035Z,13.37
2024-01-20T17:49:56.503Z,13.30
2024-01-20T17:52:23.508Z,11.53
2024-01-20T17:54:50.411Z,11.07
2024-01-20T17:57:17.415Z,13.87
2024-01-20T17:59:44.271Z,12.20
2024-01-20T18:02:11.103Z,9.97
2024-01-20T18:04:38.566Z,8.93
2024-01-20T18:07:05.541Z,9.40
2024-01-20T18:09:34.403Z,8.27
2024-01-20T18:12:01.376Z,9.60
2024-01-20T18:14:28.305Z,8.43
2024-01-20T18:16:55.174Z,8.90
2024-01-20T18:19:22.367Z,7.47
2024-01-20T18:21:49.363Z,7.07
2024-01-20T18:24:16.271Z,8.23
2024-01-20T18:26:43.160Z,7.83
2024-01-20T18:29:09.968Z,7.83
2024-01-20T18:31:36.848Z,8.50
2024-01-20T18:34:04.146Z,7.37
2024-01-20T18:36:31.062Z,7.87
2024-01-20T18:38:57.921Z,8.40
2024-01-20T18:41:25.271Z,10.27
2024-01-20T18:43:52.402Z,14.07
2024-01-20T18:46:19.206Z,18.70
2024-01-20T18:48:46.184Z,15.23
2024-01-20T18:51:13.134Z,14.47
2024-01-20T18:53:40.005Z,10.50
2024-01-20T18:56:07.206Z,12.13
2024-01-20T18:58:34.024Z,13.33
2024-01-20T19:01:01.157Z,12.67
2024-01-20T19:03:28.073Z,11.80
2024-01-20T19:05:54.870Z,13.83
2024-01-20T19:08:21.695Z,10.80
2024-01-20T19:10:48.491Z,10.40
2024-01-20T19:13:15.363Z,11.23
2024-01-20T19:15:42.164Z,12.87
2024-01-20T19:18:09.193Z,13.13
2024-01-20T19:20:41.108Z,10.63
2024-01-20T19:23:08.271Z,13.47
2024-01-20T19:25:35.256Z,13.07
2024-01-20T19:28:02.472Z,11.57
2024-01-20T19:30:29.559Z,10.53
2024-01-20T19:32:56.577Z,10.07
2024-01-20T19:35:24.372Z,9.70
2024-01-20T19:37:51.242Z,8.17
2024-01-20T19:40:18.962Z,8.03
2024-01-20T19:42:45.938Z,10.70
2024-01-20T19:45:12.954Z,8.70
2024-01-20T19:47:40.138Z,11.57
2024-01-20T19:50:08.399Z,9.17
2024-01-20T19:52:35.923Z,10.70
2024-01-20T19:55:05.443Z,9.37
2024-01-20T19:57:32.603Z,10.17
2024-01-20T20:00:01.380Z,9.57
2024-01-20T20:02:28.236Z,9.53
2024-01-20T20:04:55.136Z,9.20
2024-01-20T20:07:22.006Z,9.50
2024-01-20T20:09:49.363Z,12.20
2024-01-20T20:12:16.407Z,9.07
2024-01-20T20:14:43.297Z,8.57
2024-01-20T20:17:10.141Z,9.37
2024-01-20T20:19:37.143Z,9.43
2024-01-20T20:22:04.211Z,7.70
2024-01-20T20:24:31.295Z,9.73
2024-01-20T20:26:58.187Z,9.60
2024-01-20T20:29:25.472Z,8.50
2024-01-20T20:31:52.319Z,9.40
2024-01-20T20:34:19.331Z,10.53
2024-01-20T20:36:46.463Z,10.87
2024-01-20T20:39:13.923Z,9.30
2024-01-20T20:41:42.799Z,10.63
2024-01-20T20:44:10.163Z,9.13
2024-01-20T20:46:37.108Z,8.67
2024-01-20T20:49:04.755Z,10.97
2024-01-20T20:51:31.903Z,10.00
2024-01-20T20:53:58.787Z,9.73
2024-01-20T20:56:25.526Z,9.93
2024-01-20T20:58:52.363Z,7.80
2024-01-20T21:01:19.311Z,10.30
2024-01-20T21:03:46.496Z,8.73
2024-01-20T21:06:13.542Z,9.40
2024-01-20T21:08:40.453Z,10.40
2024-01-20T21:11:09.981Z,8.10
2024-01-20T21:13:36.938Z,8.97
2024-01-20T21:16:04.126Z,9.50
2024-01-20T21:18:31.256Z,8.93
2024-01-20T21:20:58.112Z,8.13
2024-01-20T21:23:25.363Z,8.17
2024-01-20T21:25:54.609Z,9.30
2024-01-20T21:28:21.509Z,8.67
2024-01-20T21:30:48.439Z,9.30
2024-01-20T21:33:16.069Z,9.17
2024-01-20T21:35:43.065Z,8.27
2024-01-20T21:38:10.992Z,9.20
2024-01-20T21:40:37.864Z,9.60
2024-01-20T21:43:04.891Z,8.67
2024-01-20T21:45:31.662Z,9.77
2024-01-20T21:47:58.618Z,10.77
2024-01-20T21:50:25.573Z,11.13
2024-01-20T21:52:52.533Z,12.87
2024-01-20T21:55:19.415Z,13.07
2024-01-20T21:57:50.224Z,11.87
2024-01-20T22:00:18.339Z,13.57
2024-01-20T22:02:45.348Z,37.20
2024-01-20T22:05:12.487Z,41.73
2024-01-20T22:07:39.286Z,37.70
2024-01-20T22:10:06.500Z,35.93
2024-01-20T22:12:33.425Z,33.67
2024-01-20T22:15:00.722Z,24.00
2024-01-20T22:17:27.581Z,20.23
2024-01-20T22:19:55.176Z,12.90
2024-01-20T22:22:22.792Z,12.03
2024-01-20T22:24:49.604Z,10.13
2024-01-20T22:27:16.416Z,12.23
2024-01-20T22:29:43.388Z,10.33
2024-01-20T22:32:10.160Z,11.33
2024-01-20T22:34:37.289Z,9.87
2024-01-20T22:37:04.474Z,8.70
2024-01-20T22:39:31.370Z,7.70
2024-01-20T22:41:58.313Z,8.00
2024-01-20T22:44:25.152Z,6.73
2024-01-20T22:46:52.105Z,5.63
2024-01-20T22:49:19.234Z,4.93
2024-01-20T22:51:46.235Z,7.37
2024-01-20T22:54:15.932Z,4.93
2024-01-20T22:56:43.079Z,4.83
2024-01-20T22:59:09.947Z,6.53
2024-01-20T23:01:36.921Z,4.83
2024-01-20T23:04:06.255Z,5.07
2024-01-20T23:06:33.224Z,5.63
2024-01-20T23:09:01.940Z,5.53
2024-01-20T23:11:28.783Z,3.50
2024-01-20T23:13:55.590Z,3.80
2024-01-20T23:16:22.403Z,4.97
2024-01-20T23:18:49.301Z,6.13
2024-01-20T23:21:16.522Z,8.73
2024-01-20T23:23:43.316Z,7.30
2024-01-20T23:26:11.518Z,9.33
2024-01-20T23:28:38.308Z,10.33
2024-01-20T23:31:05.217Z,5.93
2024-01-20T23:33:33.425Z,4.40
2024-01-20T23:36:00.266Z,3.87
2024-01-20T23:38:27.037Z,7.20
2024-01-20T23:40:53.883Z,4.00
2024-01-20T23:43:23.211Z,4.13
2024-01-20T23:45:50.446Z,5.07
2024-01-20T23:48:17.363Z,4.90
2024-01-20T23:50:44.316Z,3.67
2024-01-20T23:53:11.230Z,3.37
2024-01-20T23:55:38.062Z,4.13
2024-01-20T23:58:04.963Z,3.33
